sensor_id;sensor_type;location;lat;lon;timestamp;temperature;humidity
19044;DHT22;9654;52.302;8.120;2022-12-11T00:02:18;0.30;99.90
19044;DHT22;9654;52.302;8.120;2022-12-11T00:04:45;0.20;99.90
19044;DHT22;9654;52.302;8.120;2022-12-11T00:07:11;0.20;99.90
19044;DHT22;9654;52.302;8.120;2022-12-11T00:09:38;0.30;99.90
19044;DHT22;9654;52.302;8.120;2022-12-11T00:12:06;0.30;99.90
19044;DHT22;9654;52.302;8.120;2022-12-11T00:14:34;0.30;99.90
19044;DHT22;9654;52.302;8.120;2022-12-11T00:17:01;0.20;99.90
19044;DHT22;9654;52.302;8.120;2022-12-11T00:19:28;0.30;99.90
19044;DHT22;9654;52.302;8.120;2022-12-11T00:21:54;0.30;99.90
19044;DHT22;9654;52.302;8.120;2022-12-11T00:24:22;0.30;99.90
19044;DHT22;9654;52.302;8.120;2022-12-11T00:26:48;0.30;99.90
19044;DHT22;9654;52.302;8.120;2022-12-11T00:29:15;0.30;99.90
19044;DHT22;9654;52.302;8.120;2022-12-11T00:31:43;0.30;99.90
19044;DHT22;9654;52.302;8.120;2022-12-11T00:34:10;0.30;99.90
19044;DHT22;9654;52.302;8.120;2022-12-11T00:36:37;0.30;99.90
19044;DHT22;9654;52.302;8.120;2022-12-11T00:39:05;0.20;99.90
19044;DHT22;9654;52.302;8.120;2022-12-11T00:41:32;0.20;99.90
19044;DHT22;9654;52.302;8.120;2022-12-11T00:43:59;0.20;99.90
19044;DHT22;9654;52.302;8.120;2022-12-11T00:46:25;0.20;99.90
19044;DHT22;9654;52.302;8.120;2022-12-11T00:48:53;0.10;99.90
19044;DHT22;9654;52.302;8.120;2022-12-11T00:51:20;0.20;99.90
19044;DHT22;9654;52.302;8.120;2022-12-11T00:53:47;0.20;99.90
19044;DHT22;9654;52.302;8.120;2022-12-11T00:56:16;0.10;99.90
19044;DHT22;9654;52.302;8.120;2022-12-11T00:58:43;0.10;99.90
19044;DHT22;9654;52.302;8.120;2022-12-11T01:01:12;0.10;99.90
19044;DHT22;9654;52.302;8.120;2022-12-11T01:03:39;0.00;99.90
19044;DHT22;9654;52.302;8.120;2022-12-11T01:06:12;0.00;99.90
19044;DHT22;9654;52.302;8.120;2022-12-11T01:08:39;0.00;99.90
19044;DHT22;9654;52.302;8.120;2022-12-11T01:11:08;0.00;99.90
19044;DHT22;9654;52.302;8.120;2022-12-11T01:13:34;0.00;99.90
19044;DHT22;9654;52.302;8.120;2022-12-11T01:16:06;0.00;99.90
19044;DHT22;9654;52.302;8.120;2022-12-11T01:18:33;0.00;99.90
19044;DHT22;9654;52.302;8.120;2022-12-11T01:21:04;0.00;99.90
19044;DHT22;9654;52.302;8.120;2022-12-11T01:23:33;0.10;99.90
19044;DHT22;9654;52.302;8.120;2022-12-11T01:26:04;0.00;99.90
19044;DHT22;9654;52.302;8.120;2022-12-11T01:28:31;0.00;99.90
19044;DHT22;9654;52.302;8.120;2022-12-11T01:30:58;0.00;99.90
19044;DHT22;9654;52.302;8.120;2022-12-11T01:33:25;0.00;99.90
19044;DHT22;9654;52.302;8.120;2022-12-11T01:35:51;0.00;99.90
19044;DHT22;9654;52.302;8.120;2022-12-11T01:38:18;0.00;99.90
19044;DHT22;9654;52.302;8.120;2022-12-11T01:40:48;0.00;99.90
19044;DHT22;9654;52.302;8.120;2022-12-11T01:43:15;0.00;99.90
19044;DHT22;9654;52.302;8.120;2022-12-11T01:45:44;0.00;99.90
19044;DHT22;9654;52.302;8.120;2022-12-11T01:48:13;0.00;99.90
19044;DHT22;9654;52.302;8.120;2022-12-11T01:50:46;0.00;99.90
19044;DHT22;9654;52.302;8.120;2022-12-11T01:53:18;0.00;99.90
19044;DHT22;9654;52.302;8.120;2022-12-11T01:55:48;0.00;99.90
19044;DHT22;9654;52.302;8.120;2022-12-11T01:58:17;0.00;99.90
19044;DHT22;9654;52.302;8.120;2022-12-11T02:00:46;0.00;99.90
19044;DHT22;9654;52.302;8.120;2022-12-11T02:03:13;0.00;99.90
19044;DHT22;9654;52.302;8.120;2022-12-11T02:05:39;0.00;99.90
19044;DHT22;9654;52.302;8.120;2022-12-11T02:08:06;0.10;99.90
19044;DHT22;9654;52.302;8.120;2022-12-11T02:10:47;0.00;99.90
19044;DHT22;9654;52.302;8.120;2022-12-11T02:13:19;0.10;99.90
19044;DHT22;9654;52.302;8.120;2022-12-11T02:15:53;0.00;99.90
19044;DHT22;9654;52.302;8.120;2022-12-11T02:18:28;0.00;99.90
19044;DHT22;9654;52.302;8.120;2022-12-11T02:21:01;0.00;99.90
19044;DHT22;9654;52.302;8.120;2022-12-11T02:23:57;0.00;99.90
19044;DHT22;9654;52.302;8.120;2022-12-11T02:27:07;0.00;99.90
19044;DHT22;9654;52.302;8.120;2022-12-11T02:29:42;0.00;99.90
19044;DHT22;9654;52.302;8.120;2022-12-11T02:32:15;0.00;99.90
19044;DHT22;9654;52.302;8.120;2022-12-11T02:34:50;0.00;99.90
19044;DHT22;9654;52.302;8.120;2022-12-11T02:37:21;0.00;99.90
19044;DHT22;9654;52.302;8.120;2022-12-11T02:39:51;0.00;99.90
19044;DHT22;9654;52.302;8.120;2022-12-11T02:42:20;0.00;99.90
19044;DHT22;9654;52.302;8.120;2022-12-11T02:44:49;-0.10;99.90
19044;DHT22;9654;52.302;8.120;2022-12-11T02:47:18;-0.10;99.90
19044;DHT22;9654;52.302;8.120;2022-12-11T02:49:48;-0.10;99.90
19044;DHT22;9654;52.302;8.120;2022-12-11T02:52:18;-0.10;99.90
19044;DHT22;9654;52.302;8.120;2022-12-11T02:54:47;-0.10;99.90
19044;DHT22;9654;52.302;8.120;2022-12-11T02:57:17;-0.10;99.90
19044;DHT22;9654;52.302;8.120;2022-12-11T02:59:47;-0.10;99.90
19044;DHT22;9654;52.302;8.120;2022-12-11T03:02:15;-0.10;99.90
19044;DHT22;9654;52.302;8.120;2022-12-11T03:04:45;-0.20;99.90
19044;DHT22;9654;52.302;8.120;2022-12-11T03:07:15;-0.20;99.90
19044;DHT22;9654;52.302;8.120;2022-12-11T03:09:45;-0.20;99.90
19044;DHT22;9654;52.302;8.120;2022-12-11T03:12:16;-0.20;99.90
19044;DHT22;9654;52.302;8.120;2022-12-11T03:14:44;-0.20;99.90
19044;DHT22;9654;52.302;8.120;2022-12-11T03:17:15;-0.20;99.90
19044;DHT22;9654;52.302;8.120;2022-12-11T03:19:46;-0.20;99.90
19044;DHT22;9654;52.302;8.120;2022-12-11T03:22:18;-0.20;99.90
19044;DHT22;9654;52.302;8.120;2022-12-11T03:24:50;-0.20;99.90
19044;DHT22;9654;52.302;8.120;2022-12-11T03:27:25;-0.20;99.90
19044;DHT22;9654;52.302;8.120;2022-12-11T03:29:56;-0.20;99.90
19044;DHT22;9654;52.302;8.120;2022-12-11T03:32:28;-0.20;99.90
19044;DHT22;9654;52.302;8.120;2022-12-11T03:34:59;-0.20;99.90
19044;DHT22;9654;52.302;8.120;2022-12-11T03:37:33;-0.30;99.90
19044;DHT22;9654;52.302;8.120;2022-12-11T03:40:05;-0.30;99.90
19044;DHT22;9654;52.302;8.120;2022-12-11T03:42:34;-0.40;99.90
19044;DHT22;9654;52.302;8.120;2022-12-11T03:45:04;-0.40;99.90
19044;DHT22;9654;52.302;8.120;2022-12-11T03:47:33;-0.40;99.90
19044;DHT22;9654;52.302;8.120;2022-12-11T03:50:01;-0.40;99.90
19044;DHT22;9654;52.302;8.120;2022-12-11T03:52:30;-0.40;99.90
19044;DHT22;9654;52.302;8.120;2022-12-11T03:55:00;-0.40;99.90
19044;DHT22;9654;52.302;8.120;2022-12-11T03:57:30;-0.30;99.90
19044;DHT22;9654;52.302;8.120;2022-12-11T03:59:58;-0.30;99.90
19044;DHT22;9654;52.302;8.120;2022-12-11T04:02:25;-0.30;99.90
19044;DHT22;9654;52.302;8.120;2022-12-11T04:04:53;-0.20;99.90
19044;DHT22;9654;52.302;8.120;2022-12-11T04:07:19;-0.20;99.90
19044;DHT22;9654;52.302;8.120;2022-12-11T04:09:46;-0.20;99.90
19044;DHT22;9654;52.302;8.120;2022-12-11T04:12:13;-0.10;99.90
19044;DHT22;9654;52.302;8.120;2022-12-11T04:14:40;-0.10;99.90
19044;DHT22;9654;52.302;8.120;2022-12-11T04:17:24;-0.10;99.90
19044;DHT22;9654;52.302;8.120;2022-12-11T04:20:10;-0.10;99.90
19044;DHT22;9654;52.302;8.120;2022-12-11T04:22:55;-0.10;99.90
19044;DHT22;9654;52.302;8.120;2022-12-11T04:25:39;-0.20;99.90
19044;DHT22;9654;52.302;8.120;2022-12-11T04:28:06;-0.20;99.90
19044;DHT22;9654;52.302;8.120;2022-12-11T04:30:33;-0.20;99.90
19044;DHT22;9654;52.302;8.120;2022-12-11T04:32:59;-0.20;99.90
19044;DHT22;9654;52.302;8.120;2022-12-11T04:35:27;-0.30;99.90
19044;DHT22;9654;52.302;8.120;2022-12-11T04:37:54;-0.30;99.90
19044;DHT22;9654;52.302;8.120;2022-12-11T04:40:21;-0.30;99.90
19044;DHT22;9654;52.302;8.120;2022-12-11T04:42:48;-0.20;99.90
19044;DHT22;9654;52.302;8.120;2022-12-11T04:45:14;-0.30;99.90
19044;DHT22;9654;52.302;8.120;2022-12-11T04:47:41;-0.30;99.90
19044;DHT22;9654;52.302;8.120;2022-12-11T04:50:10;-0.30;99.90
19044;DHT22;9654;52.302;8.120;2022-12-11T04:52:40;-0.30;99.90
19044;DHT22;9654;52.302;8.120;2022-12-11T04:55:08;-0.40;99.90
19044;DHT22;9654;52.302;8.120;2022-12-11T04:57:35;-0.40;99.90
19044;DHT22;9654;52.302;8.120;2022-12-11T05:00:02;-0.40;99.90
19044;DHT22;9654;52.302;8.120;2022-12-11T05:02:29;-0.40;99.90
19044;DHT22;9654;52.302;8.120;2022-12-11T05:04:56;-0.40;99.90
19044;DHT22;9654;52.302;8.120;2022-12-11T05:07:22;-0.40;99.90
19044;DHT22;9654;52.302;8.120;2022-12-11T05:09:51;-0.30;99.90
19044;DHT22;9654;52.302;8.120;2022-12-11T05:12:17;-0.40;99.90
19044;DHT22;9654;52.302;8.120;2022-12-11T05:14:44;-0.30;99.90
19044;DHT22;9654;52.302;8.120;2022-12-11T05:17:11;-0.30;99.90
19044;DHT22;9654;52.302;8.120;2022-12-11T05:19:38;-0.30;99.90
19044;DHT22;9654;52.302;8.120;2022-12-11T05:22:05;-0.20;99.90
19044;DHT22;9654;52.302;8.120;2022-12-11T05:24:31;-0.20;99.90
19044;DHT22;9654;52.302;8.120;2022-12-11T05:27:00;-0.20;99.90
19044;DHT22;9654;52.302;8.120;2022-12-11T05:29:26;-0.20;99.90
19044;DHT22;9654;52.302;8.120;2022-12-11T05:31:53;-0.20;99.90
19044;DHT22;9654;52.302;8.120;2022-12-11T05:34:20;-0.20;99.90
19044;DHT22;9654;52.302;8.120;2022-12-11T05:36:46;-0.20;99.90
19044;DHT22;9654;52.302;8.120;2022-12-11T05:39:13;-0.30;99.90
19044;DHT22;9654;52.302;8.120;2022-12-11T05:41:40;-0.30;99.90
19044;DHT22;9654;52.302;8.120;2022-12-11T05:44:10;-0.40;99.90
19044;DHT22;9654;52.302;8.120;2022-12-11T05:46:37;-0.40;99.90
19044;DHT22;9654;52.302;8.120;2022-12-11T05:49:04;-0.40;99.90
19044;DHT22;9654;52.302;8.120;2022-12-11T05:51:32;-0.40;99.90
19044;DHT22;9654;52.302;8.120;2022-12-11T05:53:59;-0.50;99.90
19044;DHT22;9654;52.302;8.120;2022-12-11T05:56:28;-0.50;99.90
19044;DHT22;9654;52.302;8.120;2022-12-11T05:58:56;-0.50;99.90
19044;DHT22;9654;52.302;8.120;2022-12-11T06:01:26;-0.40;99.90
19044;DHT22;9654;52.302;8.120;2022-12-11T06:03:54;-0.50;99.90
19044;DHT22;9654;52.302;8.120;2022-12-11T06:06:21;-0.60;99.90
19044;DHT22;9654;52.302;8.120;2022-12-11T06:08:49;-0.60;99.90
19044;DHT22;9654;52.302;8.120;2022-12-11T06:11:17;-0.50;99.90
19044;DHT22;9654;52.302;8.120;2022-12-11T06:13:43;-0.50;99.90
19044;DHT22;9654;52.302;8.120;2022-12-11T06:16:10;-0.60;99.90
19044;DHT22;9654;52.302;8.120;2022-12-11T06:18:40;-0.60;99.90
19044;DHT22;9654;52.302;8.120;2022-12-11T06:21:11;-0.70;99.90
19044;DHT22;9654;52.302;8.120;2022-12-11T06:23:39;-0.70;99.90
19044;DHT22;9654;52.302;8.120;2022-12-11T06:26:06;-0.70;99.90
19044;DHT22;9654;52.302;8.120;2022-12-11T06:28:33;-0.80;99.90
19044;DHT22;9654;52.302;8.120;2022-12-11T06:31:00;-0.80;99.90
19044;DHT22;9654;52.302;8.120;2022-12-11T06:33:27;-0.80;99.90
19044;DHT22;9654;52.302;8.120;2022-12-11T06:35:56;-0.80;99.90
19044;DHT22;9654;52.302;8.120;2022-12-11T06:38:26;-0.80;99.90
19044;DHT22;9654;52.302;8.120;2022-12-11T06:40:56;-0.70;99.90
19044;DHT22;9654;52.302;8.120;2022-12-11T06:43:23;-0.70;99.90
19044;DHT22;9654;52.302;8.120;2022-12-11T06:45:50;-0.70;99.90
19044;DHT22;9654;52.302;8.120;2022-12-11T06:48:18;-0.70;99.90
19044;DHT22;9654;52.302;8.120;2022-12-11T06:50:45;-0.80;99.90
19044;DHT22;9654;52.302;8.120;2022-12-11T06:53:14;-0.80;99.90
19044;DHT22;9654;52.302;8.120;2022-12-11T06:55:41;-0.80;99.90
19044;DHT22;9654;52.302;8.120;2022-12-11T06:58:08;-0.80;99.90
19044;DHT22;9654;52.302;8.120;2022-12-11T07:00:36;-0.70;99.90
19044;DHT22;9654;52.302;8.120;2022-12-11T07:03:04;-0.70;99.90
19044;DHT22;9654;52.302;8.120;2022-12-11T07:05:31;-0.70;99.90
19044;DHT22;9654;52.302;8.120;2022-12-11T07:07:58;-0.70;99.90
19044;DHT22;9654;52.302;8.120;2022-12-11T07:10:27;-0.70;99.90
19044;DHT22;9654;52.302;8.120;2022-12-11T07:12:54;-0.60;99.90
19044;DHT22;9654;52.302;8.120;2022-12-11T07:15:20;-0.60;99.90
19044;DHT22;9654;52.302;8.120;2022-12-11T07:17:47;-0.60;99.90
19044;DHT22;9654;52.302;8.120;2022-12-11T07:20:14;-0.60;99.90
19044;DHT22;9654;52.302;8.120;2022-12-11T07:22:41;-0.60;99.90
19044;DHT22;9654;52.302;8.120;2022-12-11T07:25:08;-0.50;99.90
19044;DHT22;9654;52.302;8.120;2022-12-11T07:27:37;-0.60;99.90
19044;DHT22;9654;52.302;8.120;2022-12-11T07:30:04;-0.60;99.90
19044;DHT22;9654;52.302;8.120;2022-12-11T07:32:31;-0.50;99.90
19044;DHT22;9654;52.302;8.120;2022-12-11T07:34:58;-0.40;99.90
19044;DHT22;9654;52.302;8.120;2022-12-11T07:37:25;-0.50;99.90
19044;DHT22;9654;52.302;8.120;2022-12-11T07:39:52;-0.40;99.90
19044;DHT22;9654;52.302;8.120;2022-12-11T07:42:18;-0.40;99.90
19044;DHT22;9654;52.302;8.120;2022-12-11T07:44:47;-0.30;99.90
19044;DHT22;9654;52.302;8.120;2022-12-11T07:47:14;-0.30;99.90
19044;DHT22;9654;52.302;8.120;2022-12-11T07:49:41;-0.20;99.90
19044;DHT22;9654;52.302;8.120;2022-12-11T07:52:07;-0.20;99.90
19044;DHT22;9654;52.302;8.120;2022-12-11T07:54:34;-0.20;99.90
19044;DHT22;9654;52.302;8.120;2022-12-11T07:57:01;-0.20;99.90
19044;DHT22;9654;52.302;8.120;2022-12-11T07:59:28;-0.20;99.90
19044;DHT22;9654;52.302;8.120;2022-12-11T08:01:56;-0.30;99.90
19044;DHT22;9654;52.302;8.120;2022-12-11T08:04:22;-0.30;99.90
19044;DHT22;9654;52.302;8.120;2022-12-11T08:06:49;-0.20;99.90
19044;DHT22;9654;52.302;8.120;2022-12-11T08:09:16;-0.20;99.90
19044;DHT22;9654;52.302;8.120;2022-12-11T08:11:47;-0.20;99.90
19044;DHT22;9654;52.302;8.120;2022-12-11T08:14:14;-0.20;99.90
19044;DHT22;9654;52.302;8.120;2022-12-11T08:16:41;-0.20;99.90
19044;DHT22;9654;52.302;8.120;2022-12-11T08:19:10;-0.10;99.90
19044;DHT22;9654;52.302;8.120;2022-12-11T08:21:37;-0.10;99.90
19044;DHT22;9654;52.302;8.120;2022-12-11T08:24:04;-0.10;99.90
19044;DHT22;9654;52.302;8.120;2022-12-11T08:26:31;-0.20;99.90
19044;DHT22;9654;52.302;8.120;2022-12-11T08:28:59;-0.20;99.90
19044;DHT22;9654;52.302;8.120;2022-12-11T08:31:27;-0.20;99.90
19044;DHT22;9654;52.302;8.120;2022-12-11T08:33:54;-0.20;99.90
19044;DHT22;9654;52.302;8.120;2022-12-11T08:36:24;-0.20;99.90
19044;DHT22;9654;52.302;8.120;2022-12-11T08:38:51;-0.20;99.90
19044;DHT22;9654;52.302;8.120;2022-12-11T08:41:21;-0.30;99.90
19044;DHT22;9654;52.302;8.120;2022-12-11T08:43:48;-0.30;99.90
19044;DHT22;9654;52.302;8.120;2022-12-11T08:46:17;-0.20;99.90
19044;DHT22;9654;52.302;8.120;2022-12-11T08:48:44;-0.20;99.90
19044;DHT22;9654;52.302;8.120;2022-12-11T08:51:13;-0.30;99.90
19044;DHT22;9654;52.302;8.120;2022-12-11T08:53:41;-0.30;99.90
19044;DHT22;9654;52.302;8.120;2022-12-11T08:56:10;-0.40;99.90
19044;DHT22;9654;52.302;8.120;2022-12-11T08:58:37;-0.30;99.90
19044;DHT22;9654;52.302;8.120;2022-12-11T09:01:07;-0.40;99.90
19044;DHT22;9654;52.302;8.120;2022-12-11T09:03:34;-0.30;99.90
19044;DHT22;9654;52.302;8.120;2022-12-11T09:06:04;-0.40;99.90
19044;DHT22;9654;52.302;8.120;2022-12-11T09:08:31;-0.40;99.90
19044;DHT22;9654;52.302;8.120;2022-12-11T09:11:03;-0.30;99.90
19044;DHT22;9654;52.302;8.120;2022-12-11T09:13:30;-0.30;99.90
19044;DHT22;9654;52.302;8.120;2022-12-11T09:15:57;-0.40;99.90
19044;DHT22;9654;52.302;8.120;2022-12-11T09:18:24;-0.40;99.90
19044;DHT22;9654;52.302;8.120;2022-12-11T09:20:58;-0.40;99.90
19044;DHT22;9654;52.302;8.120;2022-12-11T09:23:25;-0.40;99.90
19044;DHT22;9654;52.302;8.120;2022-12-11T09:25:52;-0.50;99.90
19044;DHT22;9654;52.302;8.120;2022-12-11T09:28:20;-0.50;99.90
19044;DHT22;9654;52.302;8.120;2022-12-11T09:30:47;-0.50;99.90
19044;DHT22;9654;52.302;8.120;2022-12-11T09:33:14;-0.50;99.90
19044;DHT22;9654;52.302;8.120;2022-12-11T09:35:41;-0.50;99.90
19044;DHT22;9654;52.302;8.120;2022-12-11T09:38:08;-0.50;99.90
19044;DHT22;9654;52.302;8.120;2022-12-11T09:40:39;-0.40;99.90
19044;DHT22;9654;52.302;8.120;2022-12-11T09:43:17;-0.40;99.90
19044;DHT22;9654;52.302;8.120;2022-12-11T09:45:47;-0.40;99.90
19044;DHT22;9654;52.302;8.120;2022-12-11T09:48:19;-0.40;99.90
19044;DHT22;9654;52.302;8.120;2022-12-11T09:50:47;-0.40;99.90
19044;DHT22;9654;52.302;8.120;2022-12-11T09:53:19;-0.40;99.90
19044;DHT22;9654;52.302;8.120;2022-12-11T09:55:52;-0.40;99.90
19044;DHT22;9654;52.302;8.120;2022-12-11T09:58:25;-0.40;99.90
19044;DHT22;9654;52.302;8.120;2022-12-11T10:01:02;-0.40;99.90
19044;DHT22;9654;52.302;8.120;2022-12-11T10:03:43;-0.30;99.90
19044;DHT22;9654;52.302;8.120;2022-12-11T10:06:18;-0.30;99.90
19044;DHT22;9654;52.302;8.120;2022-12-11T10:08:52;-0.30;99.90
19044;DHT22;9654;52.302;8.120;2022-12-11T10:14:27;-0.30;99.90
19044;DHT22;9654;52.302;8.120;2022-12-11T10:17:03;-0.30;99.90
19044;DHT22;9654;52.302;8.120;2022-12-11T10:19:33;-0.20;99.90
19044;DHT22;9654;52.302;8.120;2022-12-11T10:22:00;-0.20;99.90
19044;DHT22;9654;52.302;8.120;2022-12-11T10:24:36;-0.10;99.90
19044;DHT22;9654;52.302;8.120;2022-12-11T10:27:14;-0.10;99.90
19044;DHT22;9654;52.302;8.120;2022-12-11T10:29:43;-0.10;99.90
19044;DHT22;9654;52.302;8.120;2022-12-11T10:32:20;-0.10;99.90
19044;DHT22;9654;52.302;8.120;2022-12-11T10:34:53;-0.10;99.90
19044;DHT22;9654;52.302;8.120;2022-12-11T10:37:22;-0.10;99.90
19044;DHT22;9654;52.302;8.120;2022-12-11T10:39:49;0.00;99.90
19044;DHT22;9654;52.302;8.120;2022-12-11T10:42:19;0.00;99.90
19044;DHT22;9654;52.302;8.120;2022-12-11T10:44:58;0.00;99.90
19044;DHT22;9654;52.302;8.120;2022-12-11T10:47:27;-0.10;99.90
19044;DHT22;9654;52.302;8.120;2022-12-11T10:49:56;-0.20;99.90
19044;DHT22;9654;52.302;8.120;2022-12-11T10:52:25;-0.20;99.90
19044;DHT22;9654;52.302;8.120;2022-12-11T10:54:57;-0.20;99.90
19044;DHT22;9654;52.302;8.120;2022-12-11T10:57:27;-0.20;99.90
19044;DHT22;9654;52.302;8.120;2022-12-11T10:59:55;-0.20;99.90
19044;DHT22;9654;52.302;8.120;2022-12-11T11:02:24;-0.30;99.90
19044;DHT22;9654;52.302;8.120;2022-12-11T11:04:56;-0.40;99.90
19044;DHT22;9654;52.302;8.120;2022-12-11T11:07:25;-0.40;99.90
19044;DHT22;9654;52.302;8.120;2022-12-11T11:10:09;-0.50;99.90
19044;DHT22;9654;52.302;8.120;2022-12-11T11:12:41;-0.40;99.90
19044;DHT22;9654;52.302;8.120;2022-12-11T11:15:11;-0.40;99.90
19044;DHT22;9654;52.302;8.120;2022-12-11T11:17:43;-0.40;99.90
19044;DHT22;9654;52.302;8.120;2022-12-11T11:20:15;-0.40;99.90
19044;DHT22;9654;52.302;8.120;2022-12-11T11:22:45;-0.30;99.90
19044;DHT22;9654;52.302;8.120;2022-12-11T11:25:18;-0.30;99.90
19044;DHT22;9654;52.302;8.120;2022-12-11T11:27:49;-0.20;99.90
19044;DHT22;9654;52.302;8.120;2022-12-11T11:30:19;-0.20;99.90
19044;DHT22;9654;52.302;8.120;2022-12-11T11:32:46;-0.20;99.90
19044;DHT22;9654;52.302;8.120;2022-12-11T11:35:20;-0.20;99.90
19044;DHT22;9654;52.302;8.120;2022-12-11T11:37:55;-0.10;99.90
19044;DHT22;9654;52.302;8.120;2022-12-11T11:40:26;-0.10;99.90
19044;DHT22;9654;52.302;8.120;2022-12-11T11:43:01;-0.10;99.90
19044;DHT22;9654;52.302;8.120;2022-12-11T11:45:33;-0.10;99.90
19044;DHT22;9654;52.302;8.120;2022-12-11T11:48:09;-0.10;99.90
19044;DHT22;9654;52.302;8.120;2022-12-11T11:50:43;-0.10;99.90
19044;DHT22;9654;52.302;8.120;2022-12-11T11:53:15;0.00;99.90
19044;DHT22;9654;52.302;8.120;2022-12-11T11:55:50;0.00;99.90
19044;DHT22;9654;52.302;8.120;2022-12-11T11:58:22;0.00;99.90
19044;DHT22;9654;52.302;8.120;2022-12-11T12:00:53;0.00;99.90
19044;DHT22;9654;52.302;8.120;2022-12-11T12:03:22;0.10;99.90
19044;DHT22;9654;52.302;8.120;2022-12-11T12:05:54;0.10;99.90
19044;DHT22;9654;52.302;8.120;2022-12-11T12:08:33;0.10;99.90
19044;DHT22;9654;52.302;8.120;2022-12-11T12:11:05;0.10;99.90
19044;DHT22;9654;52.302;8.120;2022-12-11T12:13:43;0.10;99.90
19044;DHT22;9654;52.302;8.120;2022-12-11T12:16:19;0.10;99.90
19044;DHT22;9654;52.302;8.120;2022-12-11T12:18:55;0.10;99.90
19044;DHT22;9654;52.302;8.120;2022-12-11T12:21:32;0.10;99.90
19044;DHT22;9654;52.302;8.120;2022-12-11T12:24:11;0.10;99.90
19044;DHT22;9654;52.302;8.120;2022-12-11T12:26:43;0.00;99.90
19044;DHT22;9654;52.302;8.120;2022-12-11T12:29:19;0.00;99.90
19044;DHT22;9654;52.302;8.120;2022-12-11T12:31:58;0.00;99.90
19044;DHT22;9654;52.302;8.120;2022-12-11T12:34:40;0.00;99.90
19044;DHT22;9654;52.302;8.120;2022-12-11T12:37:17;0.00;99.90
19044;DHT22;9654;52.302;8.120;2022-12-11T12:39:52;0.10;99.90
19044;DHT22;9654;52.302;8.120;2022-12-11T12:42:30;0.00;99.90
19044;DHT22;9654;52.302;8.120;2022-12-11T12:45:22;0.00;99.90
19044;DHT22;9654;52.302;8.120;2022-12-11T12:47:51;0.00;99.90
19044;DHT22;9654;52.302;8.120;2022-12-11T12:50:20;0.00;99.90
19044;DHT22;9654;52.302;8.120;2022-12-11T12:52:49;0.00;99.90
19044;DHT22;9654;52.302;8.120;2022-12-11T12:55:20;-0.10;99.90
19044;DHT22;9654;52.302;8.120;2022-12-11T12:57:49;-0.10;99.90
19044;DHT22;9654;52.302;8.120;2022-12-11T13:00:32;-0.10;99.90
19044;DHT22;9654;52.302;8.120;2022-12-11T13:03:01;-0.10;99.90
19044;DHT22;9654;52.302;8.120;2022-12-11T13:05:36;-0.10;99.90
19044;DHT22;9654;52.302;8.120;2022-12-11T13:08:08;-0.10;99.90
19044;DHT22;9654;52.302;8.120;2022-12-11T13:10:37;-0.10;99.90
19044;DHT22;9654;52.302;8.120;2022-12-11T13:13:28;-0.10;99.90
19044;DHT22;9654;52.302;8.120;2022-12-11T13:16:06;-0.10;99.90
19044;DHT22;9654;52.302;8.120;2022-12-11T13:18:35;-0.10;99.90
19044;DHT22;9654;52.302;8.120;2022-12-11T13:21:27;0.00;99.90
19044;DHT22;9654;52.302;8.120;2022-12-11T13:24:15;-0.10;99.90
19044;DHT22;9654;52.302;8.120;2022-12-11T13:26:45;-0.10;99.90
19044;DHT22;9654;52.302;8.120;2022-12-11T13:29:29;-0.10;99.90
19044;DHT22;9654;52.302;8.120;2022-12-11T13:31:59;-0.10;99.90
19044;DHT22;9654;52.302;8.120;2022-12-11T13:34:30;-0.10;99.90
19044;DHT22;9654;52.302;8.120;2022-12-11T13:36:58;-0.10;99.90
19044;DHT22;9654;52.302;8.120;2022-12-11T13:39:28;-0.10;99.90
19044;DHT22;9654;52.302;8.120;2022-12-11T13:41:58;-0.10;99.90
19044;DHT22;9654;52.302;8.120;2022-12-11T13:44:29;0.00;99.90
19044;DHT22;9654;52.302;8.120;2022-12-11T13:46:59;-0.10;99.90
19044;DHT22;9654;52.302;8.120;2022-12-11T13:49:29;-0.10;99.90
19044;DHT22;9654;52.302;8.120;2022-12-11T13:52:00;-0.10;99.90
19044;DHT22;9654;52.302;8.120;2022-12-11T13:54:29;-0.10;99.90
19044;DHT22;9654;52.302;8.120;2022-12-11T13:57:00;-0.10;99.90
19044;DHT22;9654;52.302;8.120;2022-12-11T13:59:30;-0.10;99.90
19044;DHT22;9654;52.302;8.120;2022-12-11T14:02:00;-0.10;99.90
19044;DHT22;9654;52.302;8.120;2022-12-11T14:04:30;-0.10;99.90
19044;DHT22;9654;52.302;8.120;2022-12-11T14:06:57;-0.10;99.90
19044;DHT22;9654;52.302;8.120;2022-12-11T14:09:26;-0.10;99.90
19044;DHT22;9654;52.302;8.120;2022-12-11T14:11:55;-0.10;99.90
19044;DHT22;9654;52.302;8.120;2022-12-11T14:14:28;-0.10;99.90
19044;DHT22;9654;52.302;8.120;2022-12-11T14:16:59;-0.10;99.90
19044;DHT22;9654;52.302;8.120;2022-12-11T14:19:26;-0.10;99.90
19044;DHT22;9654;52.302;8.120;2022-12-11T14:21:55;-0.10;99.90
19044;DHT22;9654;52.302;8.120;2022-12-11T14:24:22;-0.10;99.90
19044;DHT22;9654;52.302;8.120;2022-12-11T14:26:51;0.00;99.90
19044;DHT22;9654;52.302;8.120;2022-12-11T14:29:28;-0.10;99.90
19044;DHT22;9654;52.302;8.120;2022-12-11T14:31:58;0.00;99.90
19044;DHT22;9654;52.302;8.120;2022-12-11T14:34:31;0.00;99.90
19044;DHT22;9654;52.302;8.120;2022-12-11T14:37:00;-0.10;99.90
19044;DHT22;9654;52.302;8.120;2022-12-11T14:39:31;-0.10;99.90
19044;DHT22;9654;52.302;8.120;2022-12-11T14:42:03;-0.10;99.90
19044;DHT22;9654;52.302;8.120;2022-12-11T14:44:41;-0.10;99.90
19044;DHT22;9654;52.302;8.120;2022-12-11T14:47:14;-0.10;99.90
19044;DHT22;9654;52.302;8.120;2022-12-11T14:49:45;-0.10;99.90
19044;DHT22;9654;52.302;8.120;2022-12-11T14:52:17;-0.10;99.90
19044;DHT22;9654;52.302;8.120;2022-12-11T14:54:48;-0.10;99.90
19044;DHT22;9654;52.302;8.120;2022-12-11T14:57:19;-0.10;99.90
19044;DHT22;9654;52.302;8.120;2022-12-11T14:59:50;-0.10;99.90
19044;DHT22;9654;52.302;8.120;2022-12-11T15:02:26;-0.20;99.90
19044;DHT22;9654;52.302;8.120;2022-12-11T15:05:00;-0.20;99.90
19044;DHT22;9654;52.302;8.120;2022-12-11T15:07:28;-0.20;99.90
19044;DHT22;9654;52.302;8.120;2022-12-11T15:09:54;-0.20;99.90
19044;DHT22;9654;52.302;8.120;2022-12-11T15:12:21;-0.20;99.90
19044;DHT22;9654;52.302;8.120;2022-12-11T15:14:52;-0.20;99.90
19044;DHT22;9654;52.302;8.120;2022-12-11T15:17:20;-0.20;99.90
19044;DHT22;9654;52.302;8.120;2022-12-11T15:19:50;-0.10;99.90
19044;DHT22;9654;52.302;8.120;2022-12-11T15:22:19;-0.10;99.90
19044;DHT22;9654;52.302;8.120;2022-12-11T15:24:49;-0.10;99.90
19044;DHT22;9654;52.302;8.120;2022-12-11T15:27:24;-0.10;99.90
19044;DHT22;9654;52.302;8.120;2022-12-11T15:29:52;-0.10;99.90
19044;DHT22;9654;52.302;8.120;2022-12-11T15:32:20;-0.10;99.90
19044;DHT22;9654;52.302;8.120;2022-12-11T15:34:48;-0.10;99.90
19044;DHT22;9654;52.302;8.120;2022-12-11T15:37:20;-0.10;99.90
19044;DHT22;9654;52.302;8.120;2022-12-11T15:39:47;-0.10;99.90
19044;DHT22;9654;52.302;8.120;2022-12-11T15:42:17;-0.10;99.90
19044;DHT22;9654;52.302;8.120;2022-12-11T15:45:15;0.10;99.90
19044;DHT22;9654;52.302;8.120;2022-12-11T15:47:43;-0.10;99.90
19044;DHT22;9654;52.302;8.120;2022-12-11T15:50:14;0.00;99.90
19044;DHT22;9654;52.302;8.120;2022-12-11T15:52:42;0.00;99.90
19044;DHT22;9654;52.302;8.120;2022-12-11T15:55:09;0.00;99.90
19044;DHT22;9654;52.302;8.120;2022-12-11T15:57:36;-0.10;99.90
19044;DHT22;9654;52.302;8.120;2022-12-11T16:00:04;-0.10;99.90
19044;DHT22;9654;52.302;8.120;2022-12-11T16:02:33;-0.10;99.90
19044;DHT22;9654;52.302;8.120;2022-12-11T16:05:00;-0.20;99.90
19044;DHT22;9654;52.302;8.120;2022-12-11T16:07:26;-0.20;99.90
19044;DHT22;9654;52.302;8.120;2022-12-11T16:09:53;-0.20;99.90
19044;DHT22;9654;52.302;8.120;2022-12-11T16:12:20;-0.20;99.90